EGNS/IOM METAR and TAF weather

Enter ICAO airport designator
Station Type Date Time Source
EGNS METAR 2019/06/26 21:50 UTC NOAA

EGNS 262150Z 02005KT CAVOK 14/11 Q1031


Station Type Date Time Source
EGNS Decoded METAR 2019/06/26 21:50 UTC NOAA

Isle Of Man / Ronaldsway Airport, United Kingdom (EGNS) 54-05N 004-38W 0M
Jun 26, 2019 - 05:50 PM EDT / 2019.06.26 2150 UTC
Wind: from the NNE (020 degrees) at 6 MPH (5 KT):0
Visibility: greater than 7 mile(s):0
Temperature: 57 F (14 C)
Dew Point: 51 F (11 C)
Relative Humidity: 82%
Pressure (altimeter): 30.45 in. Hg (1031 hPa)
ob: EGNS 262150Z 02005KT CAVOK 14/11 Q1031
cycle: 22

Station Type Date Time Source
EGNS TAF 2019/01/16 05:00 UTC NOAA

TAF EGNS 160500 Z 1606/1615 28020KT 9999 FEW010 BKN025
TEMPO 1606/1609 6000 RA BKN010 PROB30
TEMPO 1613/1615 7000 -SHRA

Example: see airport list